createdAt,value
2022-09-26T00:01:36.603Z,39.03
2022-09-26T00:04:32.618Z,40.95
2022-09-26T00:07:00.501Z,39.47
2022-09-26T00:09:28.829Z,39.47
2022-09-26T00:11:56.248Z,44.22
2022-09-26T00:14:29.422Z,44.20
2022-09-26T00:16:56.920Z,42.58
2022-09-26T00:19:25.408Z,46.00
2022-09-26T00:21:52.637Z,37.05
2022-09-26T00:24:20.138Z,44.08
2022-09-26T00:26:48.401Z,41.58
2022-09-26T00:29:15.819Z,43.30
2022-09-26T00:31:46.071Z,43.47
2022-09-26T00:34:17.879Z,44.95
2022-09-26T00:36:45.495Z,45.80
2022-09-26T00:39:15.739Z,42.03
2022-09-26T00:41:44.009Z,43.85
2022-09-26T00:44:50.980Z,41.03
2022-09-26T00:47:33.053Z,35.92
2022-09-26T00:50:10.769Z,40.47
2022-09-26T00:52:55.169Z,38.83
2022-09-26T00:55:29.112Z,34.45
2022-09-26T00:58:28.177Z,33.25
2022-09-26T01:00:57.552Z,33.90
2022-09-26T01:03:28.282Z,32.05
2022-09-26T01:05:56.351Z,33.70
2022-09-26T01:08:33.233Z,33.63
2022-09-26T01:11:02.371Z,35.58
2022-09-26T01:13:34.346Z,41.35
2022-09-26T01:16:02.283Z,35.42
2022-09-26T01:18:30.802Z,37.25
2022-09-26T01:21:24.920Z,40.92
2022-09-26T01:24:10.720Z,39.03
2022-09-26T01:27:15.850Z,38.60
2022-09-26T01:30:04.785Z,35.00
2022-09-26T01:32:49.888Z,33.25
2022-09-26T01:35:51.759Z,38.22
2022-09-26T01:38:48.780Z,39.08
2022-09-26T01:42:19.234Z,40.25
2022-09-26T01:45:07.203Z,41.60
2022-09-26T01:47:48.585Z,37.65
2022-09-26T01:50:38.368Z,40.30
2022-09-26T01:53:25.852Z,40.22
2022-09-26T01:56:00.038Z,38.42
2022-09-26T01:58:42.637Z,36.00
2022-09-26T02:01:15.647Z,37.85
2022-09-26T02:03:57.231Z,43.08
2022-09-26T02:06:35.813Z,34.00
2022-09-26T02:09:15.062Z,40.35
2022-09-26T02:11:48.799Z,40.35
2022-09-26T02:14:43.375Z,36.00
2022-09-26T02:17:27.477Z,38.83
2022-09-26T02:20:10.735Z,37.50
2022-09-26T02:22:39.316Z,41.55
2022-09-26T02:25:08.794Z,37.28
2022-09-26T02:27:36.040Z,38.35
2022-09-26T02:30:05.847Z,35.60
2022-09-26T02:32:34.401Z,36.95
2022-09-26T02:35:23.329Z,41.67
2022-09-26T02:37:50.820Z,39.53
2022-09-26T02:40:20.496Z,32.15
2022-09-26T02:43:12.177Z,36.17
2022-09-26T02:46:04.508Z,40.67
2022-09-26T02:49:09.643Z,40.30
2022-09-26T02:51:57.705Z,41.30
2022-09-26T02:54:53.914Z,39.75
2022-09-26T02:58:05.605Z,42.03
2022-09-26T03:00:59.010Z,45.47
2022-09-26T03:03:47.840Z,40.50
2022-09-26T03:06:20.937Z,48.63
2022-09-26T03:08:50.421Z,42.05
2022-09-26T03:11:24.553Z,42.90
2022-09-26T03:13:56.311Z,45.65
2022-09-26T03:16:29.385Z,45.70
2022-09-26T03:19:32.448Z,50.25
2022-09-26T03:22:00.130Z,49.53
2022-09-26T03:24:28.444Z,43.20
2022-09-26T03:26:56.597Z,46.35
2022-09-26T03:29:23.963Z,47.00
2022-09-26T03:31:51.564Z,50.13
2022-09-26T03:34:19.261Z,45.83
2022-09-26T03:36:46.510Z,51.42
2022-09-26T03:39:14.236Z,44.90
2022-09-26T03:41:42.283Z,47.08
2022-09-26T03:44:09.730Z,48.40
2022-09-26T03:46:39.974Z,38.13
2022-09-26T03:49:07.525Z,48.28
2022-09-26T03:51:34.681Z,51.63
2022-09-26T03:54:02.177Z,51.75
2022-09-26T03:56:29.451Z,47.45
2022-09-26T03:58:56.731Z,53.15
2022-09-26T04:01:24.675Z,49.53
2022-09-26T04:03:51.987Z,43.45
2022-09-26T04:06:22.156Z,52.47
2022-09-26T04:08:52.817Z,50.58
2022-09-26T04:11:24.657Z,54.67
2022-09-26T04:13:54.194Z,52.88
2022-09-26T04:16:23.998Z,51.72
2022-09-26T04:18:58.812Z,52.90
2022-09-26T04:21:29.820Z,54.70
2022-09-26T04:23:57.588Z,57.90
2022-09-26T04:26:25.065Z,53.97
2022-09-26T04:28:56.765Z,53.45
2022-09-26T04:31:27.935Z,54.80
2022-09-26T04:33:55.617Z,47.88
2022-09-26T04:36:23.490Z,56.47
2022-09-26T04:38:50.741Z,61.45
2022-09-26T04:41:22.064Z,56.28
2022-09-26T04:43:49.645Z,54.17
2022-09-26T04:46:28.217Z,54.28
2022-09-26T04:49:00.774Z,50.10
2022-09-26T04:51:31.785Z,51.38
2022-09-26T04:53:59.767Z,51.40
2022-09-26T04:56:29.705Z,47.55
2022-09-26T04:58:59.293Z,53.55
2022-09-26T05:01:27.475Z,41.95
2022-09-26T05:03:58.515Z,60.33
2022-09-26T05:06:26.150Z,51.58
2022-09-26T05:08:53.630Z,48.33
2022-09-26T05:11:21.631Z,45.53
2022-09-26T05:13:53.560Z,46.28
2022-09-26T05:16:21.703Z,48.90
2022-09-26T05:18:52.767Z,44.90
2022-09-26T05:21:20.720Z,46.50
2022-09-26T05:24:08.135Z,47.92
2022-09-26T05:26:49.811Z,43.47
2022-09-26T05:29:18.718Z,37.97
2022-09-26T05:31:46.678Z,41.05
2022-09-26T05:34:19.563Z,51.58
2022-09-26T05:36:48.177Z,42.05
2022-09-26T05:39:36.767Z,35.13
2022-09-26T05:42:08.477Z,43.08
2022-09-26T05:44:39.173Z,48.92
2022-09-26T05:47:07.752Z,47.15
2022-09-26T05:49:36.346Z,46.30
2022-09-26T05:52:04.138Z,43.13
2022-09-26T05:54:31.603Z,42.42
2022-09-26T05:56:58.920Z,45.83
2022-09-26T05:59:26.164Z,48.00
2022-09-26T06:01:54.613Z,46.42
2022-09-26T06:04:21.948Z,46.15
2022-09-26T06:06:49.223Z,51.35
2022-09-26T06:09:16.825Z,51.47
2022-09-26T06:11:43.984Z,46.80
2022-09-26T06:14:11.164Z,45.78
2022-09-26T06:16:38.605Z,46.72
2022-09-26T06:19:06.062Z,45.08
2022-09-26T06:21:34.118Z,45.40
2022-09-26T06:24:03.032Z,48.97
2022-09-26T06:26:30.455Z,47.03
2022-09-26T06:29:00.878Z,65.78
2022-09-26T06:31:29.997Z,51.65
2022-09-26T06:33:58.617Z,44.30
2022-09-26T06:36:25.950Z,38.28
2022-09-26T06:38:56.024Z,37.90
2022-09-26T06:41:26.337Z,44.67
2022-09-26T06:43:53.704Z,41.60
2022-09-26T06:46:21.779Z,39.00
2022-09-26T06:48:49.013Z,36.83
2022-09-26T06:51:16.254Z,39.65
2022-09-26T06:53:45.831Z,41.15
2022-09-26T06:56:13.491Z,44.67
2022-09-26T06:58:41.929Z,43.80
2022-09-26T07:01:11.243Z,38.88
2022-09-26T07:03:42.946Z,41.97
2022-09-26T07:06:13.558Z,47.33
2022-09-26T07:09:01.385Z,40.85
2022-09-26T07:11:38.284Z,41.40
2022-09-26T07:14:17.319Z,38.35
2022-09-26T07:16:47.962Z,42.58
2022-09-26T07:19:16.255Z,42.90
2022-09-26T07:21:43.685Z,47.75
2022-09-26T07:24:14.386Z,36.40
2022-09-26T07:26:43.008Z,33.05
2022-09-26T07:29:10.960Z,38.92
2022-09-26T07:31:38.587Z,32.95
2022-09-26T07:34:07.743Z,30.25
2022-09-26T07:36:35.320Z,36.05
2022-09-26T07:39:02.466Z,35.80
2022-09-26T07:41:31.229Z,33.03
2022-09-26T07:47:05.758Z,41.22
2022-09-26T07:49:51.905Z,39.45
2022-09-26T07:52:22.273Z,42.25
2022-09-26T07:54:49.735Z,40.70
2022-09-26T07:57:17.192Z,37.80
2022-09-26T07:59:44.593Z,35.45
2022-09-26T08:02:32.993Z,36.33
2022-09-26T08:05:05.458Z,35.85
2022-09-26T08:07:35.577Z,28.83
2022-09-26T08:10:07.225Z,34.30
2022-09-26T08:12:39.795Z,35.08
2022-09-26T08:15:09.032Z,35.10
2022-09-26T08:17:37.115Z,35.60
2022-09-26T08:20:05.010Z,30.20
2022-09-26T08:22:32.789Z,28.35
2022-09-26T08:25:00.352Z,31.92
2022-09-26T08:27:32.680Z,31.60
2022-09-26T08:30:00.897Z,37.92
2022-09-26T08:32:30.583Z,35.03
2022-09-26T08:34:58.019Z,32.72
2022-09-26T08:37:29.661Z,37.28
2022-09-26T08:39:57.493Z,33.55
2022-09-26T08:42:55.659Z,36.72
2022-09-26T08:46:01.345Z,34.00
2022-09-26T08:48:45.254Z,40.28
2022-09-26T08:51:29.199Z,35.85
2022-09-26T08:54:18.326Z,35.58
2022-09-26T08:57:03.135Z,36.38
2022-09-26T08:59:44.306Z,37.08
2022-09-26T09:02:39.557Z,35.72
2022-09-26T09:05:19.699Z,34.97
2022-09-26T09:07:53.750Z,34.20
2022-09-26T09:10:47.437Z,35.03
2022-09-26T09:13:21.380Z,34.97
2022-09-26T09:16:16.368Z,33.25
2022-09-26T09:19:11.685Z,31.70
2022-09-26T09:22:49.026Z,35.83
2022-09-26T09:25:31.680Z,32.38
2022-09-26T09:28:23.441Z,31.75
2022-09-26T09:31:00.207Z,30.52
2022-09-26T09:33:33.925Z,34.20
2022-09-26T09:36:15.012Z,29.73
2022-09-26T09:38:48.996Z,32.20
2022-09-26T09:41:31.430Z,26.80
2022-09-26T09:44:06.216Z,26.25
2022-09-26T09:46:40.733Z,25.70
2022-09-26T09:49:25.050Z,28.45
2022-09-26T09:52:34.157Z,30.90
2022-09-26T09:55:34.857Z,28.58
2022-09-26T09:58:32.971Z,26.65
2022-09-26T10:01:25.718Z,23.35
2022-09-26T10:04:08.265Z,22.27
2022-09-26T10:06:45.052Z,23.42
2022-09-26T10:09:36.024Z,21.65
2022-09-26T10:12:24.228Z,19.75
2022-09-26T10:14:59.998Z,17.50
2022-09-26T10:17:28.695Z,19.75
2022-09-26T10:19:56.870Z,15.57
2022-09-26T10:22:37.516Z,17.90
2022-09-26T10:25:26.455Z,13.73
2022-09-26T10:27:57.277Z,14.88
2022-09-26T10:30:33.255Z,14.07
2022-09-26T10:33:04.135Z,12.40
2022-09-26T10:35:44.874Z,13.88
2022-09-26T10:38:30.165Z,16.13
2022-09-26T10:41:03.432Z,14.18
2022-09-26T10:43:36.188Z,14.02
2022-09-26T10:46:21.376Z,15.75
2022-09-26T10:48:59.703Z,15.40
2022-09-26T10:51:44.989Z,15.75
2022-09-26T10:54:19.155Z,13.90
2022-09-26T10:56:59.504Z,15.40
2022-09-26T10:59:32.395Z,14.88
2022-09-26T11:02:02.629Z,14.85
2022-09-26T11:04:53.219Z,11.73
2022-09-26T11:07:30.485Z,14.95
2022-09-26T11:10:02.925Z,13.07
2022-09-26T11:12:35.638Z,10.10
2022-09-26T11:15:10.840Z,10.63
2022-09-26T11:17:48.682Z,9.55
2022-09-26T11:20:29.364Z,8.50
2022-09-26T11:23:16.587Z,9.63
2022-09-26T11:26:11.182Z,8.30
2022-09-26T11:29:19.694Z,10.25
2022-09-26T11:31:47.528Z,6.70
2022-09-26T11:34:23.201Z,6.82
2022-09-26T11:37:03.789Z,8.23
2022-09-26T11:39:43.136Z,6.15
2022-09-26T11:42:31.742Z,4.75
2022-09-26T11:45:19.037Z,4.82
2022-09-26T11:48:08.166Z,5.53
2022-09-26T11:51:08.926Z,6.65
2022-09-26T11:54:02.776Z,5.90
2022-09-26T11:57:08.679Z,7.38
2022-09-26T11:59:50.473Z,5.57
2022-09-26T12:02:40.901Z,4.88
2022-09-26T12:05:29.425Z,5.07
2022-09-26T12:08:37.629Z,5.07
2022-09-26T12:11:41.606Z,8.02
2022-09-26T12:14:47.713Z,7.05
2022-09-26T12:17:18.878Z,4.50
2022-09-26T12:20:16.266Z,7.35
2022-09-26T12:23:20.609Z,5.85
2022-09-26T12:26:09.001Z,5.80
2022-09-26T12:29:11.816Z,3.83
2022-09-26T12:32:17.920Z,2.60
2022-09-26T12:35:30.114Z,7.82
2022-09-26T12:38:24.637Z,5.90
2022-09-26T12:41:14.438Z,3.80
2022-09-26T12:44:22.856Z,2.20
2022-09-26T12:47:28.666Z,2.35
2022-09-26T12:51:01.701Z,2.67
2022-09-26T12:53:28.943Z,2.88
2022-09-26T12:56:09.491Z,1.80
2022-09-26T12:59:07.466Z,2.30
2022-09-26T13:02:17.062Z,1.65
2022-09-26T13:04:53.368Z,2.53
2022-09-26T13:07:38.769Z,2.60
2022-09-26T13:10:35.410Z,3.25
2022-09-26T13:13:33.658Z,3.88
2022-09-26T13:16:51.791Z,3.55
2022-09-26T13:20:01.706Z,3.63
2022-09-26T13:22:42.957Z,4.15
2022-09-26T13:25:26.574Z,3.47
2022-09-26T13:28:07.186Z,3.75
2022-09-26T13:30:41.891Z,3.80
2022-09-26T13:33:40.719Z,3.72
2022-09-26T13:36:11.050Z,3.35
2022-09-26T13:38:51.780Z,4.03
2022-09-26T13:41:46.856Z,8.93
2022-09-26T13:45:00.615Z,3.47
2022-09-26T13:47:52.413Z,4.28
2022-09-26T13:50:23.509Z,4.28
2022-09-26T13:53:17.819Z,4.72
2022-09-26T13:55:45.630Z,4.47
2022-09-26T13:58:21.623Z,4.88
2022-09-26T14:00:53.194Z,5.47
2022-09-26T14:03:21.794Z,4.93
2022-09-26T14:05:52.609Z,5.03
2022-09-26T14:08:48.565Z,5.72
2022-09-26T14:11:30.939Z,7.05
2022-09-26T14:14:19.308Z,7.43
2022-09-26T14:16:53.509Z,9.07
2022-09-26T14:19:46.797Z,8.02
2022-09-26T14:22:18.449Z,7.97
2022-09-26T14:24:51.139Z,8.18
2022-09-26T14:27:18.508Z,8.35
2022-09-26T14:30:06.861Z,9.05
2022-09-26T14:32:47.013Z,8.15
2022-09-26T14:35:19.977Z,9.70
2022-09-26T14:37:51.089Z,13.70
2022-09-26T14:40:32.932Z,9.35
2022-09-26T14:43:16.052Z,10.45
2022-09-26T14:46:00.735Z,10.15
2022-09-26T14:48:38.043Z,9.50
2022-09-26T14:51:11.413Z,12.68
2022-09-26T14:53:49.208Z,10.63
2022-09-26T14:56:44.097Z,15.10
2022-09-26T14:59:17.167Z,22.25
2022-09-26T15:01:45.964Z,13.00
2022-09-26T15:04:27.513Z,13.00
2022-09-26T15:07:01.262Z,10.07
2022-09-26T15:10:03.528Z,9.60
2022-09-26T15:12:57.349Z,11.68
2022-09-26T15:15:55.151Z,8.07
2022-09-26T15:18:32.257Z,6.55
2022-09-26T15:21:11.648Z,5.22
2022-09-26T15:23:52.565Z,5.28
2022-09-26T15:26:36.063Z,5.72
2022-09-26T15:29:07.223Z,5.03
2022-09-26T15:31:42.488Z,5.07
2022-09-26T15:34:24.171Z,4.97
2022-09-26T15:36:59.428Z,7.38
2022-09-26T15:39:32.573Z,6.68
2022-09-26T15:42:39.884Z,5.40
2022-09-26T15:45:27.183Z,4.53
2022-09-26T15:48:00.208Z,5.43
2022-09-26T15:50:46.312Z,6.40
2022-09-26T15:53:39.583Z,7.03
2022-09-26T15:56:17.024Z,6.45
2022-09-26T15:59:13.191Z,5.78
2022-09-26T16:01:45.078Z,7.13
2022-09-26T16:04:29.650Z,8.15
2022-09-26T16:07:15.750Z,6.80
2022-09-26T16:09:47.847Z,10.48
2022-09-26T16:12:29.485Z,7.75
2022-09-26T16:15:19.350Z,8.38
2022-09-26T16:17:55.956Z,7.38
2022-09-26T16:20:33.186Z,7.65
2022-09-26T16:23:05.605Z,8.48
2022-09-26T16:25:55.027Z,23.55
2022-09-26T16:28:45.145Z,20.67
2022-09-26T16:31:29.318Z,24.50
2022-09-26T16:33:59.176Z,17.02
2022-09-26T16:36:36.152Z,13.82
2022-09-26T16:39:08.832Z,10.18
2022-09-26T16:42:02.480Z,9.43
2022-09-26T16:44:41.353Z,8.75
2022-09-26T16:47:45.387Z,9.95
2022-09-26T16:50:34.041Z,17.48
2022-09-26T16:53:03.162Z,34.08
2022-09-26T16:55:36.478Z,22.70
2022-09-26T16:58:05.729Z,25.58
2022-09-26T17:00:54.018Z,22.98
2022-09-26T17:03:31.720Z,19.73
2022-09-26T17:06:00.900Z,15.57
2022-09-26T17:08:29.034Z,14.57
2022-09-26T17:11:02.870Z,16.40
2022-09-26T17:13:35.454Z,13.50
2022-09-26T17:16:03.700Z,11.15
2022-09-26T17:18:33.396Z,9.02
2022-09-26T17:21:01.822Z,10.15
2022-09-26T17:23:42.053Z,13.75
2022-09-26T17:26:21.868Z,11.80
2022-09-26T17:28:53.441Z,10.30
2022-09-26T17:31:21.279Z,8.77
2022-09-26T17:33:54.284Z,14.70
2022-09-26T17:36:26.414Z,14.95
2022-09-26T17:38:54.875Z,18.48
2022-09-26T17:41:23.177Z,18.65
2022-09-26T17:43:58.873Z,20.10
2022-09-26T17:46:27.363Z,19.88
2022-09-26T17:48:56.354Z,35.17
2022-09-26T17:51:24.464Z,42.58
2022-09-26T17:53:52.805Z,47.70
2022-09-26T17:56:21.031Z,60.33
2022-09-26T17:58:52.098Z,72.95
2022-09-26T18:01:26.410Z,111.63
2022-09-26T18:04:03.720Z,114.53
2022-09-26T18:06:33.241Z,109.20
2022-09-26T18:09:10.256Z,101.00
2022-09-26T18:11:39.065Z,102.22
2022-09-26T18:14:08.252Z,93.97
2022-09-26T18:16:35.661Z,82.50
2022-09-26T18:19:07.594Z,80.35
2022-09-26T18:21:35.998Z,80.38
2022-09-26T18:24:07.018Z,73.10
2022-09-26T18:26:47.191Z,66.70
2022-09-26T18:29:39.039Z,64.28
2022-09-26T18:32:26.032Z,70.28
2022-09-26T18:34:54.033Z,58.90
2022-09-26T18:37:21.235Z,56.67
2022-09-26T18:39:52.293Z,53.70
2022-09-26T18:42:24.621Z,59.45
2022-09-26T18:45:05.118Z,71.72
2022-09-26T18:47:43.302Z,62.05
2022-09-26T18:50:22.689Z,60.47
2022-09-26T18:52:52.234Z,57.20
2022-09-26T18:55:42.084Z,64.78
2022-09-26T18:58:25.778Z,54.30
2022-09-26T19:01:13.294Z,55.20
2022-09-26T19:03:45.435Z,49.38
2022-09-26T19:06:50.149Z,47.08
2022-09-26T19:09:21.599Z,41.20
2022-09-26T19:11:49.225Z,41.47
2022-09-26T19:14:19.174Z,36.10
2022-09-26T19:16:49.341Z,30.83
2022-09-26T19:19:18.355Z,27.98
2022-09-26T19:22:01.004Z,22.63
2022-09-26T19:24:40.636Z,18.55
2022-09-26T19:27:20.563Z,17.38
2022-09-26T19:29:48.026Z,18.90
2022-09-26T19:32:42.386Z,14.68
2022-09-26T19:35:41.642Z,12.60
2022-09-26T19:38:38.336Z,11.18
2022-09-26T19:41:11.015Z,10.75
2022-09-26T19:43:38.314Z,12.40
2022-09-26T19:46:13.489Z,17.63
2022-09-26T19:48:44.187Z,20.25
2022-09-26T19:51:16.898Z,15.82
2022-09-26T19:53:44.488Z,15.02
2022-09-26T19:56:11.885Z,15.65
2022-09-26T19:58:39.934Z,14.77
2022-09-26T20:01:21.342Z,18.05
2022-09-26T20:03:50.035Z,27.92
2022-09-26T20:06:26.322Z,22.45
2022-09-26T20:09:01.612Z,18.65
2022-09-26T20:11:29.791Z,23.27
2022-09-26T20:14:15.468Z,23.27
2022-09-26T20:16:43.457Z,23.15
2022-09-26T20:19:25.864Z,26.27
2022-09-26T20:21:53.358Z,27.98
2022-09-26T20:24:20.893Z,28.75
2022-09-26T20:26:48.757Z,31.48
2022-09-26T20:29:17.264Z,28.05
2022-09-26T20:31:44.961Z,31.50
2022-09-26T20:34:12.569Z,28.88
2022-09-26T20:36:50.728Z,27.85
2022-09-26T20:39:26.228Z,31.75
2022-09-26T20:41:53.903Z,30.98
2022-09-26T20:44:29.952Z,34.85
2022-09-26T20:47:01.515Z,31.33
2022-09-26T20:49:44.145Z,35.65
2022-09-26T20:52:24.706Z,37.70
2022-09-26T20:54:53.190Z,41.20
2022-09-26T20:57:22.432Z,33.28
2022-09-26T20:59:51.177Z,35.58
2022-09-26T21:02:32.979Z,39.05
2022-09-26T21:05:01.977Z,44.92
2022-09-26T21:07:32.760Z,38.65
2022-09-26T21:09:59.990Z,35.08
2022-09-26T21:12:27.535Z,38.97
2022-09-26T21:14:54.750Z,40.38
2022-09-26T21:17:28.568Z,38.97
2022-09-26T21:19:56.477Z,37.05
2022-09-26T21:22:27.003Z,35.05
2022-09-26T21:24:55.477Z,36.25
2022-09-26T21:27:23.430Z,38.28
2022-09-26T21:29:50.606Z,35.67
2022-09-26T21:32:23.340Z,35.10
2022-09-26T21:35:03.157Z,31.42
2022-09-26T21:37:31.522Z,28.73
2022-09-26T21:39:59.178Z,33.35
2022-09-26T21:42:26.568Z,25.80
2022-09-26T21:45:01.176Z,26.35
2022-09-26T21:47:28.677Z,24.67
2022-09-26T21:49:55.880Z,24.13
2022-09-26T21:52:34.808Z,27.23
2022-09-26T21:55:04.511Z,27.52
2022-09-26T21:57:41.371Z,28.77
2022-09-26T22:00:11.628Z,29.52
2022-09-26T22:02:41.127Z,27.88
2022-09-26T22:05:11.947Z,32.35
2022-09-26T22:07:39.794Z,31.17
2022-09-26T22:10:07.561Z,31.58
2022-09-26T22:12:35.572Z,32.53
2022-09-26T22:15:02.908Z,34.22
2022-09-26T22:17:30.237Z,32.13
2022-09-26T22:19:57.765Z,30.73
2022-09-26T22:22:26.046Z,32.45
2022-09-26T22:24:54.159Z,35.08
2022-09-26T22:27:26.824Z,31.83
2022-09-26T22:29:54.589Z,36.10
2022-09-26T22:32:21.873Z,36.95
2022-09-26T22:34:49.399Z,33.67
2022-09-26T22:37:16.622Z,37.00
2022-09-26T22:39:44.005Z,39.42
2022-09-26T22:42:12.040Z,39.55
2022-09-26T22:44:39.263Z,40.05
2022-09-26T22:47:06.641Z,43.85
2022-09-26T22:49:34.168Z,37.78
2022-09-26T22:52:02.391Z,38.70
2022-09-26T22:54:29.627Z,39.35
2022-09-26T22:56:57.155Z,38.47
2022-09-26T22:59:24.510Z,35.80
2022-09-26T23:01:52.962Z,38.72
2022-09-26T23:04:20.450Z,42.05
2022-09-26T23:06:47.690Z,37.75
2022-09-26T23:09:14.952Z,34.55
2022-09-26T23:11:43.311Z,39.72
2022-09-26T23:14:10.538Z,42.55
2022-09-26T23:16:38.630Z,42.72
2022-09-26T23:19:06.237Z,47.15
2022-09-26T23:21:33.469Z,40.45
2022-09-26T23:24:01.221Z,45.42
2022-09-26T23:26:32.051Z,42.75
2022-09-26T23:29:00.045Z,41.45
2022-09-26T23:31:28.807Z,45.38
2022-09-26T23:33:57.590Z,45.60
2022-09-26T23:36:25.577Z,49.75
2022-09-26T23:38:52.916Z,43.28
2022-09-26T23:41:20.533Z,44.53
2022-09-26T23:43:47.775Z,48.58
2022-09-26T23:46:15.862Z,42.75
2022-09-26T23:48:43.984Z,43.70
2022-09-26T23:51:11.160Z,46.35
2022-09-26T23:53:38.520Z,38.20
2022-09-26T23:56:09.639Z,44.20
2022-09-26T23:58:37.588Z,42.40
